Thunder radar more information blitzortung!


avis per Pluja more information rain snow radar


Visita la nostra xarxa de llocs de meteo:

Template documentation
and downloads

And another site



Rain From: 18-10-2018 10:00 Until: 16:59 warning for: Rain Level: Yellow info button

Pagina Historial Weather Underground text

Diari Resum Abril 25, 2016 Unitats:  Mètric    Imperial   Tant
« Previous Dia
SegĂźent Dia »
Diari Setmana Mensual Anual Personalitzada
  Maxima: Minima: Media:
Temperatura: -17.8 °C -13.7 °C -10.2 °C
Punt de rosada: -17.8 °C -18.7 °C -15.4 °C
Humitat: Humidity % 44 % 53 %
Wind Speed: 0 km/h 0 km/h 12.7 km/h
RĂ fegues de vent: 0 km/h - -
Vent:- - SW
Pression baro: 0 hPa 34327.3 hPa -
Precipitacions: 0 mm    
Historical Graphs
 
 
Dades de taula per Abril 25, 2016
Temps Temperatura Punt de rosada Pression baro Vent Wind Speed RĂ fegues de vent Humitat Rainfall Rate (Hourly)
-17.8 °C -17.8 °C 0 hPa Calm     Humidity % 0 mm
00:00 -10.8 °C -13.5 °C 34395 hPa ENE 9 km/h 9 km/h 72 % 0 mm
00:05 -10.8 °C -13.6 °C 34395 hPa NNE 6 km/h 6 km/h 72 % 0 mm
00:10 -12.9 °C -18.3 °C 34462.7 hPa WSW 12.9 km/h 12.9 km/h 51 % 0 mm
00:20 -13.1 °C -18.4 °C 34462.7 hPa WSW 12.9 km/h 12.9 km/h 51 % 0 mm
00:30 -13.1 °C -18.4 °C 34462.7 hPa WSW 12.9 km/h 15.6 km/h 51 % 0 mm
00:40 -13.2 °C -18.5 °C 34462.7 hPa WSW 18.2 km/h 18.2 km/h 51 % 0 mm
00:50 -13.2 °C -18.4 °C 34462.7 hPa West 5.1 km/h 15.6 km/h 52 % 0 mm
01:00 -13.3 °C -18.5 °C 34462.7 hPa West 5.1 km/h 12.9 km/h 52 % 0 mm
01:10 -13.4 °C -18.6 °C 34462.7 hPa West 5.1 km/h 10.3 km/h 52 % 0 mm
01:20 -13.5 °C -18.7 °C 34462.7 hPa WSW 2.6 km/h 7.7 km/h 52 % 0 mm
01:30 -13.6 °C -18.7 °C 34462.7 hPa West 2.6 km/h 7.7 km/h 52 % 0 mm
01:40 -13.7 °C -18.7 °C 34462.7 hPa North 7.7 km/h 10.3 km/h 53 % 0 mm
01:50 -13.7 °C -18.7 °C 34462.7 hPa NE 2.6 km/h 15.6 km/h 53 % 0 mm
02:00 -13.6 °C -18.6 °C 34462.7 hPa West 5.1 km/h 10.3 km/h 53 % 0 mm
02:10 -13.7 °C -18.7 °C 34462.7 hPa NW 7.7 km/h 15.6 km/h 53 % 0 mm
02:20 -13.7 °C -18.7 °C 34462.7 hPa East 7.7 km/h 10.3 km/h 53 % 0 mm
02:30 -13.7 °C -18.5 °C 34462.7 hPa Calm   5.1 km/h 54 % 0 mm
02:40 -13.6 °C -18.4 °C 34462.7 hPa SW 2.6 km/h 5.1 km/h 54 % 0 mm
02:50 -13.4 °C -18.3 °C 34462.7 hPa SW 5.1 km/h 5.1 km/h 54 % 0 mm
03:00 -13.1 °C -18.1 °C 34462.7 hPa South 5.1 km/h 7.7 km/h 53 % 0 mm
03:10 -13.1 °C -18.1 °C 34462.7 hPa SE 12.9 km/h 18.2 km/h 53 % 0 mm
03:20 -13.2 °C -18.2 °C 34496.6 hPa ESE 2.6 km/h 10.3 km/h 53 % 0 mm
03:30 -13.1 °C -18.1 °C 34496.6 hPa East 2.6 km/h 5.1 km/h 53 % 0 mm
03:40 -12.8 °C -17.9 °C 34496.6 hPa NE 7.7 km/h 7.7 km/h 53 % 0 mm
03:50 -12.6 °C -17.8 °C 34496.6 hPa WSW 7.7 km/h 10.3 km/h 52 % 0 mm
04:00 -12.2 °C -17.4 °C 34496.6 hPa WSW 5.1 km/h 12.9 km/h 52 % 0 mm
04:10 -12.2 °C -17.4 °C 34496.6 hPa NE 5.1 km/h 7.7 km/h 52 % 0 mm
04:20 -12 °C -17.3 °C 34496.6 hPa ENE 2.6 km/h 5.1 km/h 52 % 0 mm
04:40 -11.8 °C -17.1 °C 34496.6 hPa NNE 2.6 km/h 10.3 km/h 52 % 0 mm
04:50 -11.4 °C -16.9 °C 34496.6 hPa NNE 7.7 km/h 10.3 km/h 51 % 0 mm
05:00 -11.1 °C -16.6 °C 34496.6 hPa NW 2.6 km/h 10.3 km/h 51 % 0 mm
05:10 -11 °C -16.6 °C 34496.6 hPa NW 5.1 km/h 10.3 km/h 50 % 0 mm
05:20 -10.5 °C -16 °C 34496.6 hPa NW 2.6 km/h 7.7 km/h 51 % 0 mm
05:30 -10.3 °C -16 °C 34496.6 hPa SW 5.1 km/h 12.9 km/h 50 % 0 mm
05:40 -10.4 °C -16.1 °C 34496.6 hPa SW 7.7 km/h 10.3 km/h 50 % 0 mm
10:44 -10.2 °C -16 °C 34496.6 hPa SSW 9 km/h 9.3 km/h 49 % 0 mm
10:49 -10.2 °C -16 °C 34496.6 hPa SSW 12.2 km/h 12.2 km/h 49 % 0 mm
10:54 -10.1 °C -15.9 °C 34496.6 hPa WSW 7.6 km/h 8.5 km/h 49 % 0 mm
10:59 -9.8 °C -15.7 °C 34496.6 hPa WSW 9 km/h 9 km/h 49 % 0 mm
11:04 -9.7 °C -15.7 °C 34496.6 hPa SSW 9.3 km/h 9.3 km/h 48 % 0 mm
11:10 -9.7 °C -15.8 °C 34496.6 hPa West 5.1 km/h 12.9 km/h 48 % 0 mm
11:15 -9.4 °C -15.5 °C 34496.6 hPa WSW 7.7 km/h 10.3 km/h 48 % 0 mm
11:20 -9.4 °C -15.4 °C 34496.6 hPa WSW 9.8 km/h 9.8 km/h 48 % 0 mm
11:25 -9.3 °C -15.6 °C 34496.6 hPa WSW 2.6 km/h 12.9 km/h 47 % 0 mm
11:30 -9.2 °C -15.5 °C 34496.6 hPa SW 5.1 km/h 15.6 km/h 47 % 0 mm
11:35 -9.1 °C -15.4 °C 34496.6 hPa SW 12.9 km/h 15.6 km/h 47 % 0 mm
11:40 -9.1 °C -15.4 °C 34496.6 hPa SW 16.1 km/h 16.1 km/h 47 % 0 mm
11:50 -8.7 °C -15 °C 34496.6 hPa SSW 5.1 km/h 15.6 km/h 47 % 0 mm
11:55 -8.4 °C -14.9 °C 34496.6 hPa South 5.1 km/h 15.6 km/h 46 % 0 mm
12:00 -8.5 °C -14.8 °C 34462.7 hPa SSW 5.1 km/h 12.9 km/h 47 % 0 mm
12:05 -8.3 °C -14.8 °C 34462.7 hPa SW 12.9 km/h 25.9 km/h 46 % 0 mm
12:10 -8.5 °C -14.8 °C 34462.7 hPa SW 7.7 km/h 23.3 km/h 47 % 0 mm
12:15 -8.4 °C -14.8 °C 34462.7 hPa SSW 2.6 km/h 23.3 km/h 47 % 0 mm
12:20 -8.4 °C -14.8 °C 34462.7 hPa SW 7.7 km/h 15.6 km/h 47 % 0 mm
12:25 -8.6 °C -14.7 °C 34462.7 hPa SW 5.1 km/h 12.9 km/h 48 % 0 mm
12:30 -8.4 °C -14.6 °C 34462.7 hPa SW 12.9 km/h 15.6 km/h 48 % 0 mm
12:35 -8.7 °C -14.8 °C 34462.7 hPa SW 7.7 km/h 18.2 km/h 48 % 0 mm
12:40 -8.6 °C -14.7 °C 34462.7 hPa SW 5.1 km/h 15.6 km/h 48 % 0 mm
12:45 -8.7 °C -15 °C 34462.7 hPa SW 15.6 km/h 18.2 km/h 47 % 0 mm
12:50 -8.4 °C -14.6 °C 34462.7 hPa SW 7.7 km/h 18.2 km/h 48 % 0 mm
12:55 -8.4 °C -14.7 °C 34462.7 hPa SW 7.7 km/h 31.1 km/h 47 % 0 mm
13:00 -8.5 °C -14.8 °C 34462.7 hPa SW 15.6 km/h 25.9 km/h 47 % 0 mm
13:05 -8.4 °C -14.8 °C 34462.7 hPa SW 15.6 km/h 25.9 km/h 47 % 0 mm
13:10 -8.1 °C -14.7 °C 34462.7 hPa SSW 7.7 km/h 23.3 km/h 46 % 0 mm
13:15 -7.9 °C -14.3 °C 34462.7 hPa SSW 18.2 km/h 25.9 km/h 47 % 0 mm
13:20 -8 °C -14.6 °C 34462.7 hPa SW 20.8 km/h 31.1 km/h 46 % 0 mm
13:25 -8.1 °C -14.6 °C 34462.7 hPa SW 15.6 km/h 33.6 km/h 46 % 0 mm
13:30 -7.9 °C -14.5 °C 34462.7 hPa SW 12.9 km/h 25.9 km/h 46 % 0 mm
13:35 -8.1 °C -14.8 °C 34462.7 hPa SSW 12.9 km/h 25.9 km/h 45 % 0 mm
13:40 -8.1 °C -14.6 °C 34462.7 hPa WSW 17.4 km/h 17.4 km/h 46 % 0 mm
13:45 -7.9 °C -14.4 °C 34462.7 hPa SSW 20.3 km/h 20.3 km/h 46 % 0 mm
13:50 -8.3 °C -14.8 °C 34462.7 hPa SW 23.8 km/h 23.8 km/h 46 % 0 mm
13:55 -8 °C -14.6 °C 34462.7 hPa WSW 16.1 km/h 16.1 km/h 46 % 0 mm
14:00 -8.1 °C -14.6 °C 34428.8 hPa WSW 33.6 km/h 33.6 km/h 46 % 0 mm
14:05 -8.1 °C -14.6 °C 34428.8 hPa SW 20.9 km/h 20.9 km/h 46 % 0 mm
14:15 -8.1 °C -14.6 °C 34462.7 hPa SSW 25.1 km/h 25.1 km/h 46 % 0 mm
14:20 -8.1 °C -14.6 °C 34462.7 hPa WSW 20.9 km/h 20.9 km/h 46 % 0 mm
14:25 -8.1 °C -14.6 °C 34462.7 hPa SSW 32.8 km/h 32.8 km/h 46 % 0 mm
14:30 -7.9 °C -14.4 °C 34428.8 hPa WSW 15 km/h 15 km/h 46 % 0 mm
14:35 -7.9 °C -14.4 °C 34428.8 hPa WSW 23.8 km/h 23.8 km/h 46 % 0 mm
14:40 -7.7 °C -14.3 °C 34428.8 hPa SSW 23.8 km/h 23.8 km/h 46 % 0 mm
14:45 -7.7 °C -14.5 °C 34395 hPa SSW 20.9 km/h 20.9 km/h 45 % 0 mm
14:50 -7.7 °C -14.5 °C 34395 hPa WSW 23.8 km/h 23.8 km/h 45 % 0 mm
14:55 -7.9 °C -14.6 °C 34395 hPa SW 22.5 km/h 22.5 km/h 45 % 0 mm
15:00 -7.7 °C -14.5 °C 34395 hPa South 35.7 km/h 35.7 km/h 45 % 0 mm
15:05 -7.7 °C -14.5 °C 34395 hPa WSW 23.8 km/h 23.8 km/h 45 % 0 mm
15:10 -7.7 °C -14.4 °C 34395 hPa SSW 29.8 km/h 29.8 km/h 45 % 0 mm
15:15 -7.8 °C -14.5 °C 34395 hPa SW 26.9 km/h 26.9 km/h 45 % 0 mm
15:20 -7.8 °C -14.6 °C 34395 hPa South 22.5 km/h 22.5 km/h 45 % 0 mm
15:25 -7.9 °C -14.8 °C 34395 hPa SW 26.9 km/h 26.9 km/h 44 % 0 mm
15:30 -7.7 °C -14.5 °C 34395 hPa South 11.9 km/h 11.9 km/h 45 % 0 mm
15:35 -7.7 °C -14.6 °C 34395 hPa WSW 23.8 km/h 23.8 km/h 44 % 0 mm
15:40 -7.7 °C -14.5 °C 34395 hPa SSW 23.8 km/h 23.8 km/h 45 % 0 mm
15:45 -7.6 °C -14.3 °C 34395 hPa WSW 26.9 km/h 26.9 km/h 45 % 0 mm
15:50 -7.6 °C -14.3 °C 34395 hPa South 15 km/h 15 km/h 45 % 0 mm
15:55 -7.6 °C -14.3 °C 34395 hPa South 23.8 km/h 23.8 km/h 45 % 0 mm
16:00 -7.7 °C -14.4 °C 34395 hPa SSW 25.9 km/h 25.9 km/h 45 % 0 mm
16:05 -7.8 °C -14.6 °C 34395 hPa SSW 29.8 km/h 29.8 km/h 45 % 0 mm
16:10 -7.8 °C -14.5 °C 34395 hPa WSW 20.9 km/h 20.9 km/h 45 % 0 mm
16:15 -7.9 °C -14.7 °C 34428.8 hPa SSW 32.8 km/h 32.8 km/h 45 % 0 mm
16:20 -7.9 °C -14.4 °C 34428.8 hPa SE 20.9 km/h 20.9 km/h 46 % 0 mm
16:25 -7.8 °C -14.5 °C 34428.8 hPa SSW 17.9 km/h 17.9 km/h 45 % 0 mm
16:30 -8.1 °C -14.8 °C 34395 hPa SW 32.8 km/h 32.8 km/h 45 % 0 mm
16:35 -7.9 °C -14.5 °C 34395 hPa WSW 33.6 km/h 33.6 km/h 46 % 0 mm
16:40 -8.1 °C -14.6 °C 34395 hPa SSW 15 km/h 15.3 km/h 46 % 0 mm
16:50 -7.7 °C -14.2 °C 34395 hPa South 20.9 km/h 20.9 km/h 46 % 0 mm
16:55 -8.1 °C -14.6 °C 34395 hPa SW 35.7 km/h 35.7 km/h 46 % 0 mm
17:00 -8.1 °C -14.6 °C 34361.1 hPa SW 26.9 km/h 26.9 km/h 46 % 0 mm
17:05 -8.1 °C -14.6 °C 34361.1 hPa SSW 49.7 km/h 49.7 km/h 46 % 0 mm
17:10 -8.1 °C -14.6 °C 34361.1 hPa SSW 32.8 km/h 32.8 km/h 46 % 0 mm
17:15 -8.1 °C -14.6 °C 34361.1 hPa SSW 29.8 km/h 29.8 km/h 46 % 0 mm
17:20 -8.1 °C -14.6 °C 34361.1 hPa SSW 11.9 km/h 11.9 km/h 46 % 0 mm
17:25 -8 °C -14.6 °C 34361.1 hPa SSW 23.8 km/h 23.8 km/h 46 % 0 mm
17:30 -7.9 °C -14.5 °C 34361.1 hPa WSW 29.8 km/h 29.8 km/h 46 % 0 mm
17:35 -8.3 °C -14.7 °C 34361.1 hPa SW 20.9 km/h 20.9 km/h 47 % 0 mm
17:40 -8.1 °C -14.5 °C 34361.1 hPa SSW 17.9 km/h 17.9 km/h 47 % 0 mm
17:45 -8.2 °C -14.6 °C 34361.1 hPa SW 29.8 km/h 29.8 km/h 47 % 0 mm
17:50 -8.2 °C -14.6 °C 34361.1 hPa West 33.6 km/h 33.6 km/h 47 % 0 mm
17:55 -8.4 °C -14.4 °C 34361.1 hPa SW 38.8 km/h 38.8 km/h 49 % 0 mm
18:00 -8.4 °C -14.4 °C 34361.1 hPa WSW 23.8 km/h 23.8 km/h 49 % 0 mm
18:05 -8.4 °C -14.4 °C 34361.1 hPa SW 23.8 km/h 23.8 km/h 49 % 0 mm
18:10 -8.2 °C -14.2 °C 34361.1 hPa WSW 11.9 km/h 11.9 km/h 49 % 0 mm
18:15 -8.4 °C -14.2 °C 34361.1 hPa SSW 23.8 km/h 23.8 km/h 50 % 0 mm
18:20 -8.5 °C -14.3 °C 34361.1 hPa South 26.9 km/h 26.9 km/h 50 % 0 mm
18:25 -8.4 °C -14.3 °C 34361.1 hPa WSW 17.9 km/h 17.9 km/h 50 % 0 mm
18:30 -8.5 °C -14.2 °C 34361.1 hPa SSW 23.8 km/h 23.8 km/h 51 % 0 mm
18:35 -8.5 °C -14.2 °C 34361.1 hPa WSW 15.6 km/h 15.6 km/h 51 % 0 mm
18:40 -8.7 °C -14.3 °C 34361.1 hPa West 33.2 km/h 33.2 km/h 51 % 0 mm
18:45 -8.8 °C -14.3 °C 34361.1 hPa SSW 17.9 km/h 17.9 km/h 52 % 0 mm
18:50 -8.7 °C -14.2 °C 34361.1 hPa South 11.9 km/h 12.7 km/h 52 % 0 mm
18:55 -8.8 °C -14.3 °C 34361.1 hPa SSW 20.9 km/h 20.9 km/h 52 % 0 mm
19:00 -8.9 °C -14.3 °C 34361.1 hPa WSW 15 km/h 15 km/h 52 % 0 mm
19:05 -9.1 °C -14.3 °C 34361.1 hPa WSW 15 km/h 15 km/h 53 % 0 mm
19:10 -9.2 °C -14.5 °C 34361.1 hPa SSW 15 km/h 15 km/h 53 % 0 mm
19:15 -9.2 °C -14.5 °C 34361.1 hPa WSW 17.9 km/h 17.9 km/h 53 % 0 mm
19:20 -9.3 °C -14.5 °C 34361.1 hPa WSW 17.9 km/h 17.9 km/h 54 % 0 mm
19:25 -9.4 °C -14.6 °C 34361.1 hPa SW 17.9 km/h 17.9 km/h 54 % 0 mm
19:30 -9.4 °C -14.6 °C 34361.1 hPa West 15 km/h 15 km/h 54 % 0 mm
19:35 -9.6 °C -14.7 °C 34361.1 hPa West 15 km/h 15 km/h 54 % 0 mm
19:40 -9.6 °C -14.7 °C 34361.1 hPa West 15 km/h 15 km/h 54 % 0 mm
19:45 -9.7 °C -14.8 °C 34361.1 hPa WSW 15 km/h 15 km/h 54 % 0 mm
19:50 -11.9 °C -15.3 °C 34395 hPa WSW 5.1 km/h 5.1 km/h 66 % 0 mm
20:00 -11.9 °C -15.3 °C 34395 hPa WSW 5.1 km/h 5.1 km/h 66 % 0 mm
20:05 -10 °C -14.8 °C 34361.1 hPa West 9 km/h 15.3 km/h 56 % 0 mm
20:10 -10.1 °C -14.8 °C 34361.1 hPa West 9 km/h 15.3 km/h 57 % 0 mm
20:15 -10.2 °C -14.8 °C 34361.1 hPa West 9 km/h 15.3 km/h 57 % 0 mm
20:20 -10.2 °C -14.9 °C 34361.1 hPa West 9 km/h 15.3 km/h 57 % 0 mm
20:25 -10.3 °C -14.8 °C 34361.1 hPa WSW 22 km/h 22 km/h 58 % 0 mm
20:30 -10.4 °C -14.9 °C 34361.1 hPa West 9.3 km/h 15.6 km/h 58 % 0 mm
20:35 -10.4 °C -14.9 °C 34361.1 hPa West 9.3 km/h 15.6 km/h 58 % 0 mm
20:40 -12 °C -15.2 °C 34395 hPa West 2.6 km/h 5.1 km/h 67 % 0 mm
20:45 -10.5 °C -15 °C 34361.1 hPa West 9.3 km/h 14.5 km/h 58 % 0 mm
20:50 -10.6 °C -15.1 °C 34361.1 hPa West 9.3 km/h 14.5 km/h 58 % 0 mm
20:55 -10.7 °C -15.2 °C 34361.1 hPa West 9 km/h 11.6 km/h 58 % 0 mm
21:00 -10.7 °C -15.2 °C 34361.1 hPa WSW 6.8 km/h 11.1 km/h 58 % 0 mm
21:06 -10.8 °C -15.2 °C 34361.1 hPa SW 11.9 km/h 12.7 km/h 58 % 0 mm
21:10 -12.3 °C -15.4 °C 34361.1 hPa Calm     68 % 0 mm
21:11 -10.8 °C -15.3 °C 34361.1 hPa WSW 9 km/h 12.2 km/h 58 % 0 mm
21:16 -10.9 °C -15.4 °C 34361.1 hPa WSW 11.9 km/h 11.9 km/h 58 % 0 mm
21:17 -10.9 °C -15.4 °C 34361.1 hPa WSW 11.9 km/h 11.9 km/h 58 % 0 mm
21:20 -12.5 °C -15.6 °C 34395 hPa Calm     68 % 0 mm
21:22 -10.9 °C -15.4 °C 34361.1 hPa SW 12.7 km/h 12.7 km/h 58 % 0 mm
21:27 -11 °C -15.4 °C 34361.1 hPa WSW 11.9 km/h 11.9 km/h 58 % 0 mm
21:30 -12.6 °C -15.6 °C 34361.1 hPa Calm     69 % 0 mm
21:32 -11 °C -15.4 °C 34361.1 hPa WSW 10.3 km/h 10.3 km/h 58 % 0 mm
21:37 -11.1 °C -15.5 °C 34361.1 hPa WSW 9 km/h 9 km/h 58 % 0 mm
21:40 -12.7 °C -15.7 °C 34361.1 hPa Calm     69 % 0 mm
21:42 -11.1 °C -15.6 °C 34361.1 hPa WSW 6.3 km/h 6.3 km/h 58 % 0 mm
21:47 -11.2 °C -15.6 °C 34395 hPa SW 7.6 km/h 7.6 km/h 58 % 0 mm
21:50 -12.8 °C -15.7 °C 34361.1 hPa Calm     70 % 0 mm
21:52 -11.2 °C -15.7 °C 34395 hPa SW 3.7 km/h 6.3 km/h 58 % 0 mm
21:57 -11.3 °C -15.7 °C 34395 hPa SW 6.8 km/h 6.8 km/h 58 % 0 mm
22:00 -12.9 °C -15.7 °C 34361.1 hPa Calm     71 % 0 mm
22:02 -11.3 °C -15.7 °C 34395 hPa West 11.9 km/h 11.9 km/h 58 % 0 mm
22:07 -11.3 °C -15.8 °C 34395 hPa West 11.9 km/h 11.9 km/h 58 % 0 mm
22:10 -12.9 °C -15.7 °C 34361.1 hPa Calm     71 % 0 mm
22:17 -11.4 °C -15.9 °C 34361.1 hPa WSW 7.6 km/h 7.6 km/h 58 % 0 mm
22:20 -13.1 °C -15.8 °C 34361.1 hPa Calm     71 % 0 mm
22:22 -11.4 °C -15.7 °C 34361.1 hPa WSW 7.6 km/h 7.6 km/h 59 % 0 mm
22:27 -11.5 °C -15.8 °C 34361.1 hPa SW 6 km/h 6 km/h 59 % 0 mm
22:30 -13.1 °C -15.7 °C 34361.1 hPa Calm     72 % 0 mm
22:32 -11.5 °C -15.8 °C 34395 hPa WSW 6 km/h 6 km/h 59 % 0 mm
22:37 -11.5 °C -15.8 °C 34395 hPa West 6.3 km/h 8 km/h 59 % 0 mm
22:40 -13.1 °C -15.7 °C 34361.1 hPa Calm     72 % 0 mm
22:42 -11.5 °C -15.7 °C 34395 hPa WSW 11.9 km/h 11.9 km/h 60 % 0 mm
22:47 -11.5 °C -15.7 °C 34395 hPa West 9 km/h 9 km/h 60 % 0 mm
22:50 -13.2 °C -15.8 °C 34361.1 hPa Calm     72 % 0 mm
22:52 -11.5 °C -15.7 °C 34395 hPa West 9 km/h 9 km/h 60 % 0 mm
22:57 -11.6 °C -15.6 °C 34395 hPa WSW 9 km/h 9 km/h 61 % 0 mm
23:00 -13.3 °C -15.9 °C 34361.1 hPa Calm     72 % 0 mm
23:02 -11.6 °C -15.7 °C 34395 hPa SW 6.3 km/h 6.3 km/h 61 % 0 mm
23:07 -11.6 °C -15.7 °C 34395 hPa SW 6.8 km/h 7.6 km/h 61 % 0 mm
23:10 -13.3 °C -15.9 °C 34361.1 hPa Calm     73 % 0 mm
23:12 -11.7 °C -15.6 °C 34395 hPa SW 6.8 km/h 7.6 km/h 62 % 0 mm
23:17 -11.7 °C -15.6 °C 34395 hPa SW 6.8 km/h 7.6 km/h 62 % 0 mm
23:20 -13.4 °C -15.9 °C 34327.3 hPa Calm   2.6 km/h 73 % 0 mm
23:22 -11.7 °C -15.6 °C 34395 hPa SW 6.8 km/h 7.6 km/h 62 % 0 mm
23:27 -11.7 °C -15.5 °C 34395 hPa SW 6.8 km/h 7.6 km/h 63 % 0 mm
23:30 -13.5 °C -16 °C 34327.3 hPa Calm     73 % 0 mm
23:32 -11.8 °C -15.5 °C 34395 hPa SW 6.8 km/h 7.6 km/h 63 % 0 mm
23:37 -11.8 °C -15.6 °C 34395 hPa WSW 7.6 km/h 7.6 km/h 63 % 0 mm
23:40 -13.6 °C -16 °C 34327.3 hPa Calm     74 % 0 mm
23:47 -11.8 °C -15.4 °C 34361.1 hPa WSW 9.3 km/h 9.3 km/h 64 % 0 mm
23:50 -13.7 °C -16.2 °C 34327.3 hPa Calm     73 % 0 mm
23:52 -11.8 °C -15.4 °C 34361.1 hPa SW 9 km/h 9 km/h 64 % 0 mm
23:57 -11.8 °C -15.3 °C 34361.1 hPa SW 11.9 km/h 11.9 km/h 65 % 0 mm
Meteo Sesrovires
Elogis d' Weather Underground - 1.5 mb

Guio original per  Jim McMurry - jmcmurry@mwt.net Adaptat per a la plantilla per  Wim van der Kuil - Leuven-Template.eu

Trobareu la nostra informacio del temps tambe a:

Weather Underground

AWEKAS